Time;durP1;ratioP1;P1;durP2;ratioP2;P2;SDS_P1;SDS_P2;PMS_P1;PMS_P2;Temp;Humidity;BMP_temperature;BMP_pressure;BME280_temperature;BME280_humidity;BME280_pressure;Samples;Min_cycle;Max_cycle;Signal;HPM_P1;HPM_P2
2022/01/08 00:02:03;;;;;;;4.25;4.00;;;;;;;3.23;82.77;100204.22;6077897;23;20002;-75
2022/01/08 00:04:46;;;;;;;;;;;;;;;;;;;;;
2022/01/08 00:07:22;;;;;;;;;;;;;;;;;;;;;
2022/01/08 00:09:48;;;;;;;4.65;4.25;;;;;;;3.29;82.15;100200.63;6100356;23;20057;-76
2022/01/08 00:12:14;;;;;;;4.50;3.90;;;;;;;3.15;82.77;100169.38;6100463;23;20381;-77
2022/01/08 00:14:48;;;;;;;3.78;3.42;;;;;;;3.28;82.59;100171.13;6122313;23;20009;-75
2022/01/08 00:17:14;;;;;;;4.93;3.78;;;;;;;3.21;82.17;100163.06;6105360;23;20037;-75
2022/01/08 00:19:39;;;;;;;2.85;2.65;;;;;;;3.27;82.43;100164.91;6099936;23;20033;-76
2022/01/08 00:22:13;;;;;;;3.30;3.10;;;;;;;3.31;82.35;100171.50;6075729;23;20010;-75
2022/01/08 00:24:41;;;;;;;2.45;2.35;;;;;;;3.45;81.85;100171.38;6109527;23;20390;-75
2022/01/08 00:27:07;;;;;;;3.13;2.92;;;;;;;3.42;82.79;100164.53;6111164;23;20006;-77
2022/01/08 00:29:32;;;;;;;3.13;2.80;;;;;;;3.43;81.98;100147.25;6052037;23;20393;-75
2022/01/08 00:31:57;;;;;;;3.78;2.72;;;;;;;3.55;82.37;100150.03;6123973;23;19994;-74
2022/01/08 00:34:23;;;;;;;2.88;2.60;;;;;;;3.54;81.75;100153.78;6122960;23;20010;-74
2022/01/08 00:36:51;;;;;;;4.50;2.95;;;;;;;3.54;81.76;100147.56;6093333;23;20006;-75
2022/01/08 00:39:16;;;;;;;3.67;3.38;;;;;;;3.48;81.72;100144.69;6099065;23;20014;-75
2022/01/08 00:41:42;;;;;;;2.78;2.58;;;;;;;3.53;81.98;100157.53;6097232;23;20066;-75
2022/01/08 00:44:07;;;;;;;3.30;3.00;;;;;;;3.40;82.19;100133.34;6124399;23;20014;-75
2022/01/08 00:46:34;;;;;;;4.85;3.45;;;;;;;3.53;81.68;100162.94;6098765;23;20038;-75
2022/01/08 00:49:00;;;;;;;3.08;2.72;;;;;;;3.52;82.01;100166.72;6098967;23;20017;-76
2022/01/08 00:51:26;;;;;;;4.35;3.33;;;;;;;3.47;81.59;100166.53;6103377;23;20505;-75
2022/01/08 00:53:52;;;;;;;3.13;2.92;;;;;;;3.47;81.47;100169.25;6100383;23;20036;-75
2022/01/08 00:56:17;;;;;;;3.30;3.10;;;;;;;3.44;82.07;100153.47;6125981;23;20001;-73
2022/01/08 00:58:43;;;;;;;3.35;3.15;;;;;;;3.34;81.34;100153.19;6126750;23;20502;-75
2022/01/08 01:01:14;;;;;;;3.95;3.65;;;;;;;3.30;81.36;100156.34;6126390;23;20010;-75
2022/01/08 01:03:39;;;;;;;5.25;3.38;;;;;;;3.26;81.23;100152.44;6126235;23;20093;-73
2022/01/08 01:06:06;;;;;;;3.80;3.50;;;;;;;3.33;81.09;100157.78;6095389;23;20341;-75
2022/01/08 01:08:34;;;;;;;2.42;2.33;;;;;;;3.46;81.75;100156.78;6075822;23;20435;-73
2022/01/08 01:11:00;;;;;;;2.00;1.88;;;;;;;3.40;81.71;100141.47;6120381;23;20433;-75
2022/01/08 01:13:25;;;;;;;4.95;2.85;;;;;;;3.44;81.63;100142.66;6074413;23;20013;-74
2022/01/08 01:15:53;;;;;;;3.10;2.58;;;;;;;3.49;81.80;100148.25;6123262;23;20012;-74
2022/01/08 01:18:30;;;;;;;3.47;3.28;;;;;;;3.43;81.24;100141.00;6098431;23;20024;-75
2022/01/08 01:20:56;;;;;;;2.38;2.28;;;;;;;3.52;80.96;100150.47;6120580;23;20429;-74
2022/01/08 01:23:30;;;;;;;2.95;2.63;;;;;;;3.59;81.62;100156.63;6092305;23;20006;-73
2022/01/08 01:26:00;;;;;;;3.47;3.17;;;;;;;3.51;81.38;100138.00;6096376;23;20013;-72
2022/01/08 01:28:44;;;;;;;3.17;2.90;;;;;;;3.67;81.09;100161.72;6073989;23;20014;-74
2022/01/08 01:42:34;;;;;;;2.65;2.45;;;;;;;3.77;80.80;100147.66;6091372;23;20025;-72
2022/01/08 01:47:36;;;;;;;6.70;2.55;;;;;;;3.78;81.43;100118.72;6091520;23;20086;-73
2022/01/08 01:50:05;;;;;;;3.78;2.60;;;;;;;3.76;80.72;100110.03;6092229;23;20014;-73
2022/01/08 01:52:30;;;;;;;2.22;2.13;;;;;;;3.82;81.14;100111.81;6066108;23;20014;-73
2022/01/08 01:54:56;;;;;;;2.80;2.60;;;;;;;3.90;81.33;100111.50;6090706;23;20106;-74
2022/01/08 01:57:25;;;;;;;2.45;1.67;;;;;;;4.04;81.06;100119.44;6090007;23;19998;-73
2022/01/08 01:59:54;;;;;;;1.95;1.85;;;;;;;4.07;80.57;100100.03;6067136;23;20017;-73
2022/01/08 02:02:20;;;;;;;1.55;1.45;;;;;;;4.15;81.25;100094.28;6066926;23;20029;-73
2022/01/08 02:04:47;;;;;;;1.73;1.63;;;;;;;4.09;81.18;100073.53;6098425;23;20006;-74
2022/01/08 02:07:15;;;;;;;1.10;1.08;;;;;;;4.16;80.38;100071.56;6089597;23;20010;-73
2022/01/08 02:09:43;;;;;;;0.98;0.98;;;;;;;4.19;80.67;100057.56;6091354;23;20422;-73
2022/01/08 02:12:20;;;;;;;0.95;0.77;;;;;;;4.32;80.75;100075.47;6043232;23;20085;-73
2022/01/08 02:14:49;;;;;;;0.75;0.75;;;;;;;4.30;80.60;100064.88;6090948;23;20054;-72
2022/01/08 02:17:18;;;;;;;2.08;1.25;;;;;;;4.36;81.37;100072.06;6065539;23;20014;-74
2022/01/08 02:19:43;;;;;;;1.05;0.98;;;;;;;4.40;80.66;100063.50;6089459;23;20012;-74
2022/01/08 02:22:24;;;;;;;0.40;0.40;;;;;;;4.43;80.87;100057.63;6064569;23;20458;-71
2022/01/08 02:24:50;;;;;;;0.63;0.63;;;;;;;4.57;80.49;100074.44;6090254;23;20042;-73
2022/01/08 02:27:17;;;;;;;2.58;1.08;;;;;;;4.62;80.84;100080.81;6089101;23;20014;-73
2022/01/08 02:29:43;;;;;;;2.40;1.17;;;;;;;4.67;80.82;100080.94;6065911;23;20033;-73
2022/01/08 02:32:16;;;;;;;0.95;0.95;;;;;;;4.70;80.81;100063.38;6067968;23;20337;-73
2022/01/08 02:34:44;;;;;;;0.93;0.90;;;;;;;4.67;80.27;100045.72;6067685;23;20006;-74
2022/01/08 02:37:12;;;;;;;0.77;0.77;;;;;;;4.81;79.74;100045.47;6093977;23;20015;-74
2022/01/08 02:39:40;;;;;;;2.15;1.13;;;;;;;4.83;80.68;100051.47;6065096;23;20100;-71
2022/01/08 02:42:07;;;;;;;1.85;0.85;;;;;;;4.89;80.64;100034.25;6120008;23;20464;-73
2022/01/08 02:44:34;;;;;;;1.85;0.85;;;;;;;4.94;79.75;100031.69;6095057;23;20010;-75
2022/01/08 02:47:00;;;;;;;0.77;0.68;;;;;;;4.96;79.76;100024.13;6121886;23;20013;-74
2022/01/08 02:49:26;;;;;;;1.55;0.60;;;;;;;5.05;80.50;100009.16;6074313;23;20153;-73
2022/01/08 02:51:52;;;;;;;0.45;0.30;;;;;;;5.11;79.64;100001.13;6122360;23;20081;-74
2022/01/08 02:54:18;;;;;;;1.95;0.50;;;;;;;5.14;80.52;100004.19;6125122;23;20006;-74
2022/01/08 02:56:46;;;;;;;0.68;0.65;;;;;;;5.13;80.28;99996.28;6140654;23;20000;-73
2022/01/08 02:59:16;;;;;;;0.68;0.68;;;;;;;5.17;80.19;99981.16;6096422;23;20042;-74
2022/01/08 03:01:41;;;;;;;0.40;0.40;;;;;;;5.17;79.59;99986.59;6096651;23;20009;-75
2022/01/08 03:04:08;;;;;;;1.95;1.00;;;;;;;5.15;80.01;99983.31;6093604;23;20013;-74
2022/01/08 03:06:34;;;;;;;1.10;1.02;;;;;;;5.17;79.97;99998.28;6095373;23;20373;-74
2022/01/08 03:08:59;;;;;;;3.45;0.77;;;;;;;5.16;79.80;99995.81;6118389;23;20010;-73
2022/01/08 03:11:25;;;;;;;1.15;0.88;;;;;;;5.25;80.56;99999.78;6121040;23;20005;-74
2022/01/08 03:13:51;;;;;;;2.78;0.93;;;;;;;5.28;80.37;99979.50;6122150;23;20008;-74
2022/01/08 03:16:17;;;;;;;1.70;1.05;;;;;;;5.39;79.99;99971.31;6095753;23;20059;-73
2022/01/08 03:18:44;;;;;;;1.20;0.77;;;;;;;5.42;79.47;99970.00;6093295;23;20021;-74
2022/01/08 03:21:15;;;;;;;2.80;0.95;;;;;;;5.40;80.25;99974.84;6094849;23;20018;-76
2022/01/08 03:23:55;;;;;;;1.13;0.95;;;;;;;5.49;79.94;99967.97;6075010;23;20006;-74
2022/01/08 03:26:23;;;;;;;2.47;0.80;;;;;;;5.57;80.57;99964.84;6096128;23;20006;-74
2022/01/08 03:28:49;;;;;;;3.20;0.65;;;;;;;5.65;80.98;99960.94;6094682;23;20397;-74
2022/01/08 03:31:15;;;;;;;2.10;0.95;;;;;;;5.67;80.34;99952.53;6120136;23;20032;-75
2022/01/08 03:33:42;;;;;;;4.57;1.05;;;;;;;5.71;80.23;99938.25;6119713;23;20401;-73
2022/01/08 03:36:09;;;;;;;4.65;1.33;;;;;;;5.76;80.57;99924.75;6046276;23;20016;-74
2022/01/08 03:38:35;;;;;;;1.02;0.60;;;;;;;5.79;80.46;99911.78;6120868;23;20037;-74
2022/01/08 03:41:01;;;;;;;8.10;1.23;;;;;;;5.84;80.23;99909.13;6088535;23;20014;-74
2022/01/08 03:43:26;;;;;;;5.40;1.58;;;;;;;5.80;80.79;99902.53;6066682;23;20010;-74
2022/01/08 03:45:52;;;;;;;2.00;1.00;;;;;;;5.80;80.73;99910.69;6041496;23;20021;-74
2022/01/08 03:51:01;;;;;;;5.38;1.13;;;;;;;5.76;80.98;99875.09;6093317;23;20049;-74
2022/01/08 03:53:27;;;;;;;0.68;0.68;;;;;;;5.85;80.73;99879.03;6089603;23;20007;-75
2022/01/08 03:55:54;;;;;;;6.82;1.23;;;;;;;5.80;80.44;99880.84;6095258;23;20002;-74
2022/01/08 03:58:19;;;;;;;12.50;1.42;;;;;;;5.69;80.02;99858.97;6066791;23;20203;-75
2022/01/08 04:00:49;;;;;;;4.82;1.00;;;;;;;5.66;80.46;99862.19;6043634;23;20315;-75
2022/01/08 04:03:18;;;;;;;2.00;1.38;;;;;;;5.59;80.97;99858.81;6068039;23;20014;-75
2022/01/08 04:05:48;;;;;;;2.80;0.88;;;;;;;5.53;80.22;99844.34;6070635;23;20030;-75
2022/01/08 04:08:19;;;;;;;1.70;0.88;;;;;;;5.62;80.83;99868.34;6094882;23;20061;-75
2022/01/08 04:10:47;;;;;;;10.00;1.17;;;;;;;5.56;81.87;99860.16;6046185;23;20062;-75
2022/01/08 04:13:21;;;;;;;4.60;1.38;;;;;;;5.62;81.27;99839.31;6069147;23;20002;-74
2022/01/08 04:15:53;;;;;;;3.97;1.20;;;;;;;5.57;82.10;99820.28;6068894;23;20041;-75
2022/01/08 04:18:26;;;;;;;6.85;1.23;;;;;;;5.61;82.24;99826.84;6092540;23;20022;-75
2022/01/08 04:23:29;;;;;;;3.35;1.35;;;;;;;5.72;82.85;99831.38;6105655;23;20020;-74
2022/01/08 04:25:55;;;;;;;4.00;0.98;;;;;;;5.67;82.73;99820.44;6045137;23;20093;-75
2022/01/08 04:28:21;;;;;;;3.50;0.93;;;;;;;5.68;82.22;99796.81;6070045;23;20020;-74
2022/01/08 04:30:47;;;;;;;6.57;1.42;;;;;;;5.74;83.04;99807.53;6095476;23;20101;-73
2022/01/08 04:33:12;;;;;;;8.20;1.17;;;;;;;5.77;82.99;99789.94;6068142;23;20007;-74
2022/01/08 04:35:38;;;;;;;1.88;1.17;;;;;;;5.84;83.26;99801.44;6070112;23;20014;-75
2022/01/08 04:38:04;;;;;;;14.88;3.90;;;;;;;5.85;83.23;99785.97;6094912;23;20008;-74
2022/01/08 04:40:33;;;;;;;11.40;1.30;;;;;;;5.94;83.33;99795.28;6074761;23;20029;-75
2022/01/08 04:43:05;;;;;;;6.18;1.58;;;;;;;5.87;84.54;99762.09;6114012;23;20010;-74
2022/01/08 04:45:31;;;;;;;5.15;1.52;;;;;;;6.04;83.59;99770.22;6090802;23;20413;-74
2022/01/08 04:47:58;;;;;;;5.30;0.95;;;;;;;6.05;83.92;99767.25;6062387;23;20105;-73
2022/01/08 04:50:24;;;;;;;1.27;0.70;;;;;;;6.01;83.52;99760.69;6094667;23;20003;-74
2022/01/08 04:52:59;;;;;;;0.85;0.52;;;;;;;6.13;83.01;99759.75;6069292;23;20033;-74
2022/01/08 04:55:27;;;;;;;9.70;1.20;;;;;;;6.20;83.09;99766.63;6090655;23;20025;-74
2022/01/08 04:57:55;;;;;;;4.25;1.00;;;;;;;6.23;83.81;99759.88;6094873;23;20062;-75
2022/01/08 05:00:23;;;;;;;18.20;2.63;;;;;;;6.23;83.86;99759.88;6070030;23;20011;-75
2022/01/08 05:02:49;;;;;;;17.27;2.78;;;;;;;6.24;84.72;99745.22;6072220;23;20022;-74
2022/01/08 05:05:15;;;;;;;14.57;1.75;;;;;;;6.36;84.12;99735.03;6071276;23;20014;-73
2022/01/08 05:07:41;;;;;;;14.23;1.90;;;;;;;6.54;84.82;99738.47;6094598;23;20010;-74
2022/01/08 05:10:10;;;;;;;10.88;1.90;;;;;;;6.71;84.59;99736.47;6095785;23;20002;-76
2022/01/08 05:12:36;;;;;;;16.35;1.70;;;;;;;6.78;84.85;99723.50;6071083;23;19998;-75
2022/01/08 05:15:02;;;;;;;6.72;1.63;;;;;;;6.97;85.20;99736.72;6106104;23;20055;-73
2022/01/08 05:17:33;;;;;;;11.32;1.83;;;;;;;7.05;84.93;99733.50;6111603;23;20009;-74
2022/01/08 05:20:02;;;;;;;15.23;1.88;;;;;;;7.12;83.97;99728.66;6072957;23;20089;-74
2022/01/08 05:22:47;;;;;;;6.05;1.10;;;;;;;7.18;84.93;99731.44;6066760;23;20006;-74
2022/01/08 05:25:21;;;;;;;4.03;1.83;;;;;;;7.09;84.13;99712.88;6069747;23;20006;-74
2022/01/08 05:27:48;;;;;;;18.58;1.88;;;;;;;7.13;84.36;99719.44;6069188;23;20030;-75
2022/01/08 05:30:21;;;;;;;12.30;1.45;;;;;;;7.09;83.87;99707.44;6093333;23;20058;-75
2022/01/08 05:32:49;;;;;;;17.77;2.00;;;;;;;7.14;83.19;99704.78;6091634;23;20061;-74
2022/01/08 05:35:15;;;;;;;17.30;2.63;;;;;;;7.09;83.32;99696.56;6092995;23;20089;-75
2022/01/08 05:37:50;;;;;;;15.55;2.75;;;;;;;7.10;83.27;99687.34;6093067;23;20034;-75
2022/01/08 05:40:19;;;;;;;9.48;2.28;;;;;;;7.05;83.56;99679.13;6069360;23;20074;-75
2022/01/08 05:42:45;;;;;;;15.23;2.15;;;;;;;7.02;83.53;99679.66;6041276;23;20081;-74
2022/01/08 05:45:13;;;;;;;9.77;2.08;;;;;;;6.97;83.89;99668.75;6067094;23;20033;-75
2022/01/08 05:47:39;;;;;;;24.63;2.47;;;;;;;6.96;84.29;99653.53;6065213;23;20089;-74
2022/01/08 05:50:06;;;;;;;13.88;2.22;;;;;;;7.01;84.89;99656.28;6090346;23;20100;-74
2022/01/08 05:52:49;;;;;;;;;;;;;;;;;;;;;
2022/01/08 05:55:16;;;;;;;11.23;2.20;;;;;;;7.00;85.28;99649.22;6069786;23;20081;-74
2022/01/08 05:57:44;;;;;;;20.95;2.15;;;;;;;7.04;85.93;99639.44;6092497;23;20006;-74
2022/01/08 06:00:10;;;;;;;19.52;3.67;;;;;;;7.04;85.67;99622.31;6091661;23;20923;-74
2022/01/08 06:03:00;;;;;;;21.23;2.72;;;;;;;7.07;85.48;99616.38;6066103;23;20014;-74
2022/01/08 06:05:25;;;;;;;17.02;2.47;;;;;;;7.07;85.57;99608.22;6091652;23;20010;-73
2022/01/08 06:07:50;;;;;;;13.50;2.92;;;;;;;7.10;86.46;99605.78;6092618;23;20049;-73
2022/01/08 06:10:18;;;;;;;12.85;3.15;;;;;;;7.03;86.77;99588.88;6090375;23;20406;-73
2022/01/08 06:12:44;;;;;;;17.40;3.40;;;;;;;7.00;86.45;99567.66;6065293;23;19999;-74
2022/01/08 06:15:12;;;;;;;16.30;2.70;;;;;;;7.03;86.03;99571.75;6042387;23;20042;-73
2022/01/08 06:17:38;;;;;;;23.45;2.55;;;;;;;7.14;86.62;99578.84;6065302;23;20026;-73
2022/01/08 06:20:07;;;;;;;16.25;3.05;;;;;;;7.07;86.59;99554.66;6068761;23;20014;-75
2022/01/08 06:22:33;;;;;;;25.30;4.03;;;;;;;7.18;86.70;99560.13;6090568;23;20002;-75
2022/01/08 06:24:58;;;;;;;26.55;2.55;;;;;;;7.10;86.99;99547.88;6067381;23;20010;-74
2022/01/08 06:27:24;;;;;;;23.00;3.15;;;;;;;7.18;87.02;99546.53;6091139;23;20142;-74
2022/01/08 06:29:49;;;;;;;13.15;2.60;;;;;;;7.24;87.51;99546.31;6093428;23;20022;-75
2022/01/08 06:32:18;;;;;;;24.35;4.05;;;;;;;7.16;87.08;99528.56;6042626;23;20021;-75
2022/01/08 06:34:44;;;;;;;23.83;3.85;;;;;;;7.23;87.96;99528.34;6066843;23;20017;-75
2022/01/08 06:37:13;;;;;;;21.80;3.00;;;;;;;7.23;88.17;99532.94;6065892;23;20117;-75
2022/01/08 06:39:38;;;;;;;22.20;3.40;;;;;;;7.24;88.03;99515.56;6067154;23;20019;-74
2022/01/08 06:42:04;;;;;;;18.55;2.60;;;;;;;7.28;87.99;99513.94;6021366;23;20034;-76
2022/01/08 06:44:32;;;;;;;29.83;3.30;;;;;;;7.31;88.22;99497.09;6041497;23;20026;-76
2022/01/08 06:47:02;;;;;;;20.75;2.78;;;;;;;7.36;88.34;99486.25;6046617;23;20002;-75
2022/01/08 06:49:28;;;;;;;25.83;3.15;;;;;;;7.28;87.92;99465.00;6087922;23;20006;-74
2022/01/08 06:51:56;;;;;;;17.35;3.35;;;;;;;7.39;88.16;99466.66;6065416;23;20478;-75
2022/01/08 06:54:22;;;;;;;28.58;3.47;;;;;;;7.42;89.17;99471.56;6043175;23;20656;-74
2022/01/08 06:56:47;;;;;;;30.92;3.67;;;;;;;7.41;88.95;99469.13;6066557;23;20010;-74
2022/01/08 06:59:13;;;;;;;23.40;3.58;;;;;;;7.50;89.53;99452.00;6092235;23;20018;-73
2022/01/08 07:01:38;;;;;;;18.60;3.78;;;;;;;7.45;89.65;99441.09;6092049;23;20006;-74
2022/01/08 07:04:04;;;;;;;12.75;2.85;;;;;;;7.63;89.78;99449.84;6091318;23;20006;-74
2022/01/08 07:06:32;;;;;;;32.33;3.97;;;;;;;7.68;89.51;99447.09;6091877;23;20041;-74
2022/01/08 07:08:57;;;;;;;30.25;4.03;;;;;;;7.73;90.02;99441.69;6067432;23;20006;-74
2022/01/08 07:11:23;;;;;;;16.67;2.65;;;;;;;7.86;89.53;99440.31;6066960;23;20026;-73
2022/01/08 07:13:48;;;;;;;13.73;2.38;;;;;;;7.89;89.62;99430.81;6091692;23;20008;-75
2022/01/08 07:16:15;;;;;;;19.50;2.80;;;;;;;7.88;90.23;99419.09;6061350;23;20402;-73
2022/01/08 07:18:41;;;;;;;18.13;3.30;;;;;;;7.92;90.07;99409.28;6092275;23;20011;-73
2022/01/08 07:21:06;;;;;;;28.98;3.80;;;;;;;7.96;90.16;99415.03;6042363;23;20286;-74
2022/01/08 07:23:32;;;;;;;21.67;3.25;;;;;;;8.00;89.87;99395.13;6063258;23;20009;-73
2022/01/08 07:25:57;;;;;;;22.55;2.55;;;;;;;8.14;89.42;99406.25;6068531;23;20016;-75
2022/01/08 07:28:23;;;;;;;20.55;3.60;;;;;;;8.23;89.84;99403.00;6092365;23;20013;-74
2022/01/08 07:30:51;;;;;;;28.85;3.65;;;;;;;8.15;89.90;99402.47;6097115;23;20010;-74
2022/01/08 07:33:16;;;;;;;15.35;1.77;;;;;;;8.13;90.10;99385.59;6100574;23;20045;-72
2022/01/08 07:35:44;;;;;;;29.95;3.80;;;;;;;8.17;90.37;99381.19;6086382;23;20014;-77
2022/01/08 07:38:21;;;;;;;28.30;2.85;;;;;;;8.26;90.02;99383.38;6097416;23;20010;-76
2022/01/08 07:40:51;;;;;;;15.25;2.53;;;;;;;8.32;89.76;99369.47;6070369;23;20022;-76
2022/01/08 07:43:19;;;;;;;18.33;2.28;;;;;;;8.23;90.32;99346.59;6044287;23;20021;-77
2022/01/08 07:45:44;;;;;;;34.35;2.92;;;;;;;8.25;90.05;99338.16;6069197;23;20002;-75
2022/01/08 07:48:10;;;;;;;24.10;3.22;;;;;;;8.33;90.21;99345.78;6095865;23;20008;-75
2022/01/08 07:50:35;;;;;;;19.88;1.92;;;;;;;8.28;89.96;99329.44;6041177;23;20106;-74
2022/01/08 07:53:01;;;;;;;18.67;2.53;;;;;;;8.25;89.85;99322.66;6070443;23;20067;-75
2022/01/08 07:55:27;;;;;;;16.15;2.55;;;;;;;8.24;89.70;99323.72;6091334;23;20085;-75
2022/01/08 07:57:52;;;;;;;19.77;2.45;;;;;;;8.23;90.65;99316.66;6070634;23;20081;-74
2022/01/08 08:00:25;;;;;;;11.02;2.20;;;;;;;8.25;90.68;99308.19;6065150;23;20342;-74
2022/01/08 08:03:01;;;;;;;;;;;;;;;;;;;;;
2022/01/08 08:05:27;;;;;;;12.85;2.40;;;;;;;8.26;90.30;99302.47;6094913;23;20505;-74
2022/01/08 08:08:00;;;;;;;22.85;2.47;;;;;;;8.25;90.13;99297.31;6066278;23;20041;-72
2022/01/08 08:10:27;;;;;;;15.98;2.47;;;;;;;8.37;90.00;99289.66;6094477;23;20017;-78
2022/01/08 08:12:56;;;;;;;16.60;2.30;;;;;;;8.37;90.26;99284.19;6094922;23;19999;-76
2022/01/08 08:15:22;;;;;;;29.50;2.10;;;;;;;8.28;90.50;99264.06;6067094;23;20013;-75
2022/01/08 08:17:47;;;;;;;15.73;2.03;;;;;;;8.33;90.22;99264.06;6095189;23;20010;-76
2022/01/08 08:20:15;;;;;;;10.23;1.45;;;;;;;8.38;90.39;99272.19;6068047;23;20624;-78
2022/01/08 08:22:41;;;;;;;25.77;3.10;;;;;;;8.43;90.75;99263.19;6070388;23;20374;-77
2022/01/08 08:25:15;;;;;;;23.27;2.90;;;;;;;8.42;90.42;99262.38;6069667;23;20010;-74
2022/01/08 08:27:48;;;;;;;17.38;2.38;;;;;;;8.39;90.87;99254.75;6067621;23;20097;-77
2022/01/08 08:30:14;;;;;;;18.65;3.38;;;;;;;8.47;90.56;99248.75;6070632;23;20010;-76
2022/01/08 08:32:39;;;;;;;10.82;1.88;;;;;;;8.47;90.45;99248.75;6067772;23;20010;-76
2022/01/08 08:35:05;;;;;;;13.52;1.55;;;;;;;8.59;90.19;99247.63;6094503;23;20002;-76
2022/01/08 08:37:33;;;;;;;11.45;1.33;;;;;;;8.58;89.96;99229.63;6095693;23;20006;-76
2022/01/08 08:39:58;;;;;;;9.43;1.30;;;;;;;8.51;89.86;99225.31;6070227;23;20011;-76
2022/01/08 08:42:24;;;;;;;6.95;1.67;;;;;;;8.66;89.96;99223.56;6073412;23;20330;-74
2022/01/08 08:44:54;;;;;;;18.85;2.50;;;;;;;8.60;89.77;99211.06;6071409;23;20014;-73
2022/01/08 08:47:50;;;;;;;;;;;;;;;;;;;;;
2022/01/08 08:50:16;;;;;;;;;;;;;;;8.74;89.95;99193.00;6122828;23;20085;-75
2022/01/08 08:52:47;;;;;;;17.85;2.38;;;;;;;8.63;89.84;99173.19;6121883;23;19949;-75
2022/01/08 08:55:14;;;;;;;16.80;1.35;;;;;;;8.65;90.04;99183.81;6121872;23;20006;-74
2022/01/08 08:57:40;;;;;;;11.45;1.30;;;;;;;8.68;89.84;99155.97;6093082;23;20372;-75
2022/01/08 09:00:06;;;;;;;9.45;1.20;;;;;;;8.72;89.69;99151.59;6069138;23;20010;-74
2022/01/08 09:02:34;;;;;;;11.90;1.20;;;;;;;8.73;89.17;99139.56;6121301;23;20517;-75
2022/01/08 09:05:07;;;;;;;12.98;1.70;;;;;;;8.77;89.38;99126.19;6122316;23;20029;-75
2022/01/08 09:07:34;;;;;;;9.48;1.80;;;;;;;8.81;89.88;99119.09;6091039;23;20010;-74
2022/01/08 09:10:01;;;;;;;12.70;1.65;;;;;;;8.90;89.82;99118.16;6122328;23;20010;-75
2022/01/08 09:12:26;;;;;;;9.68;1.70;;;;;;;8.88;89.05;99093.09;6122179;23;20080;-76
2022/01/08 09:14:52;;;;;;;13.90;2.67;;;;;;;8.87;89.64;99082.50;6121521;23;20775;-76
2022/01/08 09:17:24;;;;;;;17.67;1.70;;;;;;;8.97;89.25;99078.84;6093857;23;20410;-75
2022/01/08 09:20:10;;;;;;;4.60;0.90;;;;;;;9.01;89.68;99077.16;6096863;23;20040;-75
2022/01/08 09:22:36;;;;;;;5.43;1.63;;;;;;;9.00;89.66;99072.81;6115347;23;20005;-74
2022/01/08 09:25:07;;;;;;;9.70;2.22;;;;;;;9.02;89.73;99066.00;6096665;23;20397;-74
2022/01/08 09:27:37;;;;;;;19.88;2.13;;;;;;;9.02;89.88;99046.06;6090556;23;20006;-74
2022/01/08 09:30:11;;;;;;;14.27;1.90;;;;;;;9.04;89.99;99046.59;6096542;23;20005;-78
2022/01/08 09:32:37;;;;;;;12.63;2.00;;;;;;;9.06;89.66;99049.84;6115791;23;20429;-76
2022/01/08 09:35:05;;;;;;;27.23;2.78;;;;;;;9.13;90.14;99038.59;6070605;23;20010;-74
2022/01/08 09:37:40;;;;;;;;;;;;;;;;;;;;;
2022/01/08 09:40:14;;;;;;;10.15;1.95;;;;;;;9.22;90.17;99015.03;6124567;23;20077;-75
2022/01/08 09:42:41;;;;;;;30.25;3.25;;;;;;;9.23;90.04;99003.03;6109537;23;20069;-74
2022/01/08 09:45:09;;;;;;;13.88;1.38;;;;;;;9.26;89.87;98999.72;6102509;23;20010;-75
2022/01/08 09:47:37;;;;;;;10.20;1.58;;;;;;;9.25;90.08;98987.97;6123449;23;20029;-76
2022/01/08 09:50:13;;;;;;;16.38;2.05;;;;;;;9.18;90.24;98976.59;6116610;23;20698;-76
2022/01/08 09:52:39;;;;;;;11.32;1.80;;;;;;;9.21;90.55;98954.22;6095821;23;20010;-76
2022/01/08 09:55:10;;;;;;;12.30;1.98;;;;;;;9.18;91.09;98943.06;6120948;23;20009;-76
2022/01/08 09:57:45;;;;;;;;;;;;;;;;;;;;;
2022/01/08 10:00:20;;;;;;;6.10;0.80;;;;;;;9.29;90.79;98946.47;6120422;23;20366;-76
2022/01/08 10:02:49;;;;;;;15.38;1.52;;;;;;;9.26;91.31;98935.03;6122450;23;20821;-77
2022/01/08 10:05:15;;;;;;;8.25;1.10;;;;;;;9.36;91.01;98960.56;6095619;23;20014;-77
2022/01/08 10:08:03;;;;;;;7.80;0.95;;;;;;;9.33;91.60;98922.94;6095709;23;20035;-77
2022/01/08 10:10:28;;;;;;;6.15;1.55;;;;;;;9.35;91.24;98915.31;6099286;23;20009;-76
2022/01/08 10:12:59;;;;;;;5.13;1.95;;;;;;;9.39;90.91;98899.97;6124678;23;19998;-77
2022/01/08 10:18:49;;;;;;;4.70;0.93;;;;;;;9.63;90.85;98899.06;6125126;23;20017;-77
2022/01/08 10:21:22;;;;;;;1.27;0.57;;;;;;;9.56;90.52;98889.34;6046220;23;20006;-78
2022/01/08 10:24:05;;;;;;;;;;;;;;;;;;;;;
2022/01/08 10:26:45;;;;;;;4.43;0.70;;;;;;;9.63;90.62;98867.13;6123051;23;20093;-77
2022/01/08 10:29:31;;;;;;;;;;;;;;;;;;;;;
2022/01/08 10:32:13;;;;;;;;;;;;;;;;;;;;;
2022/01/08 10:34:48;;;;;;;1.42;0.35;;;;;;;9.55;90.42;98818.66;6118687;23;20089;-77
2022/01/08 10:37:16;;;;;;;1.83;0.70;;;;;;;9.67;90.51;98834.59;6095779;23;20006;-77
2022/01/08 10:39:57;;;;;;;3.22;0.40;;;;;;;9.61;90.67;98826.47;6094980;23;20029;-78
2022/01/08 10:42:41;;;;;;;;;;;;;;;;;;;;;
2022/01/08 10:45:15;;;;;;;3.92;0.47;;;;;;;9.55;90.49;98819.50;6097381;23;20370;-77
2022/01/08 10:47:42;;;;;;;2.72;0.30;;;;;;;9.52;90.96;98795.53;6096426;23;20014;-78
2022/01/08 10:50:28;;;;;;;5.43;0.47;;;;;;;9.61;90.72;98804.63;6094470;23;19998;-77
2022/01/08 10:53:03;;;;;;;;;;;;;;;;;;;;;
2022/01/08 10:55:32;;;;;;;5.78;0.77;;;;;;;9.59;90.99;98774.13;6098009;23;20105;-78
2022/01/08 10:57:58;;;;;;;7.00;0.75;;;;;;;9.65;90.77;98793.94;6123100;23;20410;-77
2022/01/08 11:00:32;;;;;;;3.20;0.50;;;;;;;9.66;91.38;98775.66;6097993;23;20038;-78
2022/01/08 11:03:00;;;;;;;2.05;0.68;;;;;;;9.66;90.67;98762.00;6097125;23;20009;-76
2022/01/08 11:05:27;;;;;;;1.55;0.35;;;;;;;9.73;91.06;98759.69;6100459;23;20006;-76
2022/01/08 11:08:13;;;;;;;0.98;0.30;;;;;;;9.64;91.04;98747.81;6120891;23;20425;-76
2022/01/08 11:10:46;;;;;;;1.75;0.50;;;;;;;9.63;91.15;98741.56;6101990;23;20013;-75
2022/01/08 11:13:14;;;;;;;0.65;0.20;;;;;;;9.54;90.89;98727.81;6097314;23;20477;-75
2022/01/08 11:15:51;;;;;;;1.60;0.35;;;;;;;9.66;91.09;98735.50;6094262;23;20022;-75
2022/01/08 11:18:19;;;;;;;0.70;0.28;;;;;;;9.64;91.04;98717.81;6123240;23;20002;-75
2022/01/08 11:20:53;;;;;;;1.70;0.45;;;;;;;9.58;91.21;98707.00;6094660;23;20012;-75
2022/01/08 11:23:28;;;;;;;0.40;0.20;;;;;;;9.59;91.78;98705.91;6119408;23;20062;-76
2022/01/08 11:25:57;;;;;;;3.45;0.40;;;;;;;9.62;90.90;98707.19;6123340;23;20002;-76
2022/01/08 11:28:37;;;;;;;2.00;0.40;;;;;;;9.61;91.69;98679.09;6098606;23;20029;-76
2022/01/08 11:31:05;;;;;;;1.40;0.68;;;;;;;9.52;91.83;98642.72;6124494;23;20006;-75
2022/01/08 11:33:35;;;;;;;0.73;0.35;;;;;;;9.58;91.08;98630.59;6119063;23;20006;-75
2022/01/08 11:36:02;;;;;;;0.90;0.30;;;;;;;9.63;91.52;98631.59;6116513;23;20006;-76
2022/01/08 11:38:28;;;;;;;0.57;0.30;;;;;;;9.66;91.27;98620.06;6072921;23;20037;-76
2022/01/08 11:40:58;;;;;;;1.67;0.40;;;;;;;9.69;92.17;98603.88;6118240;23;20033;-76
2022/01/08 11:43:29;;;;;;;2.25;0.25;;;;;;;9.79;91.61;98600.94;6096748;23;20081;-75
2022/01/08 11:45:56;;;;;;;0.98;0.57;;;;;;;9.79;92.21;98608.34;6122829;23;20025;-76
2022/01/08 11:48:32;;;;;;;1.75;1.05;;;;;;;9.73;91.73;98593.19;6121926;23;20033;-75
2022/01/08 11:51:03;;;;;;;1.35;0.20;;;;;;;9.80;91.81;98588.13;6122709;23;20012;-75
2022/01/08 11:53:34;;;;;;;7.38;0.50;;;;;;;9.74;91.91;98572.97;6121023;23;20001;-75
2022/01/08 11:56:04;;;;;;;3.95;0.93;;;;;;;9.75;91.69;98558.19;6119385;23;20326;-75
2022/01/08 11:58:34;;;;;;;1.85;0.32;;;;;;;9.75;92.45;98559.03;6119941;23;20017;-75
2022/01/08 12:01:02;;;;;;;1.33;0.50;;;;;;;9.86;91.95;98554.13;6095234;23;20437;-75
2022/01/08 12:03:49;;;;;;;1.83;0.63;;;;;;;9.88;92.15;98551.88;6121954;23;20030;-76
2022/01/08 12:06:26;;;;;;;0.63;0.20;;;;;;;9.90;92.29;98546.94;6096734;23;20407;-76
2022/01/08 12:09:07;;;;;;;0.88;0.10;;;;;;;9.91;91.98;98526.69;6097883;23;20002;-76
2022/01/08 12:11:54;;;;;;;0.70;0.45;;;;;;;9.89;91.64;98498.91;6121825;23;20005;-75
2022/01/08 12:14:28;;;;;;;2.08;0.52;;;;;;;9.91;92.33;98491.22;6108088;23;20368;-75
2022/01/08 12:16:57;;;;;;;1.30;0.55;;;;;;;10.04;92.41;98495.00;6122139;23;20044;-76
2022/01/08 12:19:41;;;;;;;1.52;0.20;;;;;;;10.13;92.32;98493.16;6095760;23;20971;-76
2022/01/08 12:22:22;;;;;;;0.45;0.30;;;;;;;10.22;92.38;98476.00;6123485;23;20060;-76
2022/01/08 12:24:52;;;;;;;0.80;0.10;;;;;;;10.17;91.78;98467.97;6096720;23;20001;-76